Time;durP1;ratioP1;P1;durP2;ratioP2;P2;SDS_P1;SDS_P2;PMS_P1;PMS_P2;Temp;Humidity;BMP_temperature;BMP_pressure;BME280_temperature;BME280_humidity;BME280_pressure;Samples;Min_cycle;Max_cycle;Signal;HPM_P1;HPM_P2
2021/03/11 00:01:13;;;;;;;99.18;15.43;;;;;;;11.71;100.00;99903.50;5070325;28;20033;-66
2021/03/11 00:03:38;;;;;;;110.07;17.48;;;;;;;11.72;100.00;99888.75;5069751;28;20499;-67
2021/03/11 00:06:04;;;;;;;94.60;17.23;;;;;;;11.71;100.00;99886.28;5052147;28;20566;-66
2021/03/11 00:08:30;;;;;;;109.72;17.50;;;;;;;11.69;100.00;99883.00;5070224;28;20033;-67
2021/03/11 00:10:56;;;;;;;103.95;17.45;;;;;;;11.67;100.00;99896.94;5069987;28;20028;-68
2021/03/11 00:13:21;;;;;;;100.13;18.20;;;;;;;11.65;100.00;99882.72;5070158;28;20037;-67
2021/03/11 00:15:47;;;;;;;95.15;16.30;;;;;;;11.61;100.00;99881.59;5070157;28;20044;-67
2021/03/11 00:18:14;;;;;;;98.53;15.55;;;;;;;11.59;100.00;99894.75;5069932;28;20041;-67
2021/03/11 00:20:40;;;;;;;111.60;20.17;;;;;;;11.58;100.00;99859.47;5069921;28;20035;-68
2021/03/11 00:23:05;;;;;;;102.35;16.73;;;;;;;11.53;100.00;99878.59;5070022;28;20448;-65
2021/03/11 00:25:33;;;;;;;97.85;15.80;;;;;;;11.53;100.00;99875.88;5069829;28;20147;-67
2021/03/11 00:27:59;;;;;;;98.53;15.48;;;;;;;11.50;100.00;99849.91;5070383;28;20032;-66
2021/03/11 00:30:25;;;;;;;87.80;15.32;;;;;;;11.47;100.00;99847.72;5055772;28;20106;-68
2021/03/11 00:32:52;;;;;;;92.80;15.57;;;;;;;11.49;100.00;99861.94;5055665;28;20032;-66
2021/03/11 00:35:19;;;;;;;95.30;15.18;;;;;;;11.49;100.00;99856.47;5073349;28;20111;-68
2021/03/11 00:37:46;;;;;;;84.63;16.20;;;;;;;11.49;100.00;99840.06;5073454;28;20253;-68
2021/03/11 00:40:13;;;;;;;83.28;14.45;;;;;;;11.46;100.00;99829.66;5073333;28;20399;-67
2021/03/11 00:42:39;;;;;;;92.32;16.45;;;;;;;11.46;100.00;99835.97;5073212;28;20041;-66
2021/03/11 00:45:07;;;;;;;96.60;16.00;;;;;;;11.46;100.00;99835.16;5073435;28;20061;-68
2021/03/11 00:47:32;;;;;;;99.43;15.63;;;;;;;11.45;100.00;99830.75;5073687;28;20036;-67
2021/03/11 00:49:58;;;;;;;104.07;16.83;;;;;;;11.45;100.00;99838.94;5073356;28;20580;-67
2021/03/11 00:52:25;;;;;;;99.80;16.52;;;;;;;11.44;100.00;99842.75;5073366;28;20457;-66
2021/03/11 00:54:50;;;;;;;97.30;15.70;;;;;;;11.42;100.00;99834.03;5073030;28;20090;-68
2021/03/11 00:57:16;;;;;;;98.53;16.65;;;;;;;11.40;100.00;99825.28;5073100;28;20044;-66
2021/03/11 00:59:42;;;;;;;109.88;16.10;;;;;;;11.37;100.00;99844.97;5073148;28;20033;-67
2021/03/11 01:02:07;;;;;;;92.43;13.93;;;;;;;11.36;100.00;99835.94;5073180;28;20060;-67
2021/03/11 01:04:33;;;;;;;94.28;14.77;;;;;;;11.39;100.00;99819.00;5072929;28;20072;-66
2021/03/11 01:06:59;;;;;;;65.82;14.88;;;;;;;11.42;100.00;99834.03;5073113;28;20044;-67
2021/03/11 01:09:25;;;;;;;73.47;14.23;;;;;;;11.45;100.00;99800.66;5073090;28;20371;-67
2021/03/11 01:11:50;;;;;;;85.07;15.80;;;;;;;11.47;100.00;99842.25;5072876;28;20097;-67
2021/03/11 01:14:16;;;;;;;94.57;14.45;;;;;;;11.47;100.00;99831.31;5073218;28;20452;-66
2021/03/11 01:16:46;;;;;;;80.60;12.43;;;;;;;11.43;100.00;99819.25;5073048;28;20067;-66
2021/03/11 01:19:12;;;;;;;76.72;13.68;;;;;;;11.43;100.00;99824.72;5073037;28;20028;-67
2021/03/11 01:21:38;;;;;;;73.57;13.43;;;;;;;11.40;100.00;99792.47;5073036;28;20039;-66
2021/03/11 01:24:04;;;;;;;68.68;12.13;;;;;;;11.32;100.00;99828.56;5072772;28;20049;-67
2021/03/11 01:26:29;;;;;;;66.82;11.57;;;;;;;11.26;100.00;99833.19;5072688;28;20047;-67
2021/03/11 01:28:55;;;;;;;88.30;14.85;;;;;;;11.30;100.00;99830.75;5072783;28;20037;-67
2021/03/11 01:31:21;;;;;;;87.93;14.35;;;;;;;11.30;100.00;99830.75;5072665;28;20045;-67
2021/03/11 01:33:46;;;;;;;67.40;12.75;;;;;;;11.27;100.00;99843.03;5072467;28;20032;-68
2021/03/11 01:36:12;;;;;;;71.88;13.10;;;;;;;11.27;100.00;99762.94;5072504;28;20513;-68
2021/03/11 01:38:38;;;;;;;84.40;13.73;;;;;;;11.24;100.00;99820.88;5072457;28;20047;-68
2021/03/11 01:41:04;;;;;;;85.13;13.65;;;;;;;11.24;100.00;99804.47;5071067;28;20033;-66
2021/03/11 01:43:29;;;;;;;66.78;14.38;;;;;;;11.28;100.00;99791.91;5072515;28;20028;-67
2021/03/11 01:45:55;;;;;;;74.88;14.50;;;;;;;11.27;100.00;99812.13;5072167;28;20536;-66
2021/03/11 01:48:20;;;;;;;98.20;15.68;;;;;;;11.30;100.00;99795.22;5072100;28;20032;-67
2021/03/11 01:50:46;;;;;;;85.05;14.18;;;;;;;11.23;100.00;99808.31;5072168;28;20044;-67
2021/03/11 01:53:12;;;;;;;86.38;14.63;;;;;;;11.24;100.00;99801.75;5054139;28;20098;-67
2021/03/11 01:55:39;;;;;;;84.72;14.02;;;;;;;11.22;100.00;99801.22;5071816;28;20051;-67
2021/03/11 01:58:05;;;;;;;88.50;15.57;;;;;;;11.16;100.00;99834.00;5071821;28;20135;-65
2021/03/11 02:00:31;;;;;;;104.95;16.10;;;;;;;11.14;100.00;99811.59;5053907;28;20113;-67
2021/03/11 02:02:58;;;;;;;88.10;15.30;;;;;;;11.13;100.00;99781.81;5071290;28;20068;-68
2021/03/11 02:05:23;;;;;;;58.80;12.55;;;;;;;11.15;100.00;99774.97;5053719;28;20059;-67
2021/03/11 02:07:50;;;;;;;61.08;11.65;;;;;;;11.23;100.00;99761.84;5071745;28;20032;-67
2021/03/11 02:10:25;;;;;;;79.97;12.93;;;;;;;11.24;100.00;99782.63;5071582;28;20117;-68
2021/03/11 02:13:00;;;;;;;75.95;13.80;;;;;;;11.22;100.00;99769.22;5071580;28;20043;-67
2021/03/11 02:15:55;;;;;;;73.82;14.80;;;;;;;11.23;100.00;99742.72;5071842;28;20037;-67
2021/03/11 02:18:34;;;;;;;81.43;13.90;;;;;;;11.20;100.00;99773.34;5039985;28;20048;-67
2021/03/11 02:21:01;;;;;;;83.13;12.48;;;;;;;11.14;100.00;99784.25;5071487;28;20029;-67
2021/03/11 02:23:49;;;;;;;67.15;12.73;;;;;;;11.13;100.00;99749.03;5071410;28;20044;-66
2021/03/11 02:26:32;;;;;;;95.80;15.82;;;;;;;11.16;100.00;99760.22;5071262;28;20033;-67
2021/03/11 02:29:04;;;;;;;91.13;14.73;;;;;;;11.09;100.00;99770.56;5071293;28;20032;-66
2021/03/11 02:31:34;;;;;;;90.80;16.17;;;;;;;11.14;100.00;99751.47;5071107;28;20130;-67
2021/03/11 02:34:03;;;;;;;85.68;12.18;;;;;;;11.10;100.00;99736.69;5071179;28;20047;-67
2021/03/11 02:36:30;;;;;;;72.28;12.32;;;;;;;11.08;100.00;99729.88;5071133;28;20043;-67
2021/03/11 02:38:58;;;;;;;84.70;14.02;;;;;;;11.09;100.00;99742.44;5071073;28;20040;-67
2021/03/11 02:41:26;;;;;;;81.00;14.13;;;;;;;11.06;100.00;99735.59;5071366;28;20534;-66
2021/03/11 02:43:53;;;;;;;68.03;12.30;;;;;;;11.01;100.00;99712.94;5071125;28;20082;-67
2021/03/11 02:46:20;;;;;;;76.40;13.35;;;;;;;10.97;100.00;99699.00;5070839;28;20074;-68
2021/03/11 02:48:49;;;;;;;73.13;11.27;;;;;;;10.98;100.00;99714.31;5070980;28;20043;-67
2021/03/11 02:51:15;;;;;;;68.82;13.55;;;;;;;10.97;100.00;99729.06;5070603;28;20040;-68
2021/03/11 02:53:42;;;;;;;75.80;14.07;;;;;;;10.94;100.00;99764.31;5070772;28;20055;-68
2021/03/11 02:56:08;;;;;;;76.07;12.80;;;;;;;11.01;100.00;99741.06;5070929;28;20143;-67
2021/03/11 02:58:35;;;;;;;68.75;11.52;;;;;;;11.06;100.00;99746.53;5070875;28;20049;-67
2021/03/11 03:01:01;;;;;;;67.85;11.82;;;;;;;11.07;100.00;99734.50;5070864;28;20044;-67
2021/03/11 03:03:29;;;;;;;68.03;11.88;;;;;;;11.05;100.00;99733.16;5070495;28;20084;-67
2021/03/11 03:05:56;;;;;;;60.67;10.23;;;;;;;11.08;100.00;99749.81;5070797;28;20048;-68
2021/03/11 03:08:24;;;;;;;72.70;12.43;;;;;;;11.09;100.00;99732.31;5070656;28;20029;-67
2021/03/11 03:10:53;;;;;;;62.35;11.45;;;;;;;11.08;100.00;99736.16;5070749;28;20055;-67
2021/03/11 03:13:21;;;;;;;76.55;14.10;;;;;;;11.10;100.00;99727.69;5052753;28;20036;-67
2021/03/11 03:15:47;;;;;;;65.90;12.02;;;;;;;11.12;100.00;99742.72;5070639;28;20040;-66
2021/03/11 03:18:15;;;;;;;73.60;13.02;;;;;;;11.14;100.00;99701.47;5070678;28;20036;-67
2021/03/11 03:20:42;;;;;;;64.85;11.98;;;;;;;11.14;100.00;99723.31;5052421;28;20732;-67
2021/03/11 03:23:08;;;;;;;71.22;10.23;;;;;;;11.07;100.00;99699.00;5070448;28;20123;-66
2021/03/11 03:25:34;;;;;;;59.83;10.30;;;;;;;10.99;100.00;99715.94;5070431;28;20532;-68
2021/03/11 03:28:00;;;;;;;78.32;12.63;;;;;;;10.99;100.00;99743.25;5070719;28;20444;-66
2021/03/11 03:30:27;;;;;;;64.32;13.35;;;;;;;10.96;100.00;99726.59;5070567;28;20448;-66
2021/03/11 03:32:53;;;;;;;62.30;11.40;;;;;;;10.94;100.00;99685.91;5070423;28;20040;-67
2021/03/11 03:35:23;;;;;;;82.20;13.52;;;;;;;10.96;100.00;99732.88;5070436;28;20040;-68
2021/03/11 03:37:52;;;;;;;67.00;10.82;;;;;;;10.98;100.00;99724.41;5070962;28;20123;-67
2021/03/11 03:40:21;;;;;;;67.20;10.65;;;;;;;10.96;100.00;99726.59;5052225;28;20115;-67
2021/03/11 03:43:20;;;;;;;60.90;11.20;;;;;;;10.92;100.00;99715.38;5070445;28;20029;-67
2021/03/11 03:46:13;;;;;;;61.75;11.10;;;;;;;10.88;100.00;99745.16;5070157;28;20042;-66
2021/03/11 03:48:50;;;;;;;63.05;11.68;;;;;;;10.86;100.00;99760.19;5067476;28;20479;-67
2021/03/11 03:51:20;;;;;;;63.75;10.75;;;;;;;10.88;100.00;99741.59;5070575;28;20032;-68
2021/03/11 03:53:51;;;;;;;70.15;12.20;;;;;;;10.90;100.00;99738.59;5070101;28;20039;-67
2021/03/11 03:56:25;;;;;;;61.65;9.93;;;;;;;10.90;100.00;99750.34;5070153;28;20032;-67
2021/03/11 03:58:57;;;;;;;76.43;11.73;;;;;;;10.86;100.00;99771.09;5070322;28;20036;-68
2021/03/11 04:01:29;;;;;;;55.40;9.80;;;;;;;10.87;100.00;99756.34;5070181;28;20085;-67
2021/03/11 04:03:59;;;;;;;46.45;8.00;;;;;;;10.87;100.00;99750.88;5072041;28;20082;-67
2021/03/11 04:06:25;;;;;;;42.15;7.75;;;;;;;10.84;100.00;99748.69;5073988;28;20036;-67
2021/03/11 04:08:52;;;;;;;62.72;9.35;;;;;;;10.83;100.00;99749.78;5073727;28;20044;-67
2021/03/11 04:11:19;;;;;;;40.25;8.88;;;;;;;10.78;100.00;99741.59;5073797;28;20083;-67
2021/03/11 04:13:46;;;;;;;45.72;9.00;;;;;;;10.76;100.00;99771.06;5073813;28;20135;-68
2021/03/11 04:16:15;;;;;;;52.17;8.43;;;;;;;10.73;100.00;99788.00;5055832;28;20032;-67
2021/03/11 04:18:41;;;;;;;38.15;7.85;;;;;;;10.71;100.00;99757.41;5073642;28;20036;-68
2021/03/11 04:21:07;;;;;;;37.45;7.78;;;;;;;10.70;100.00;99774.88;5073811;28;20134;-66
2021/03/11 04:23:36;;;;;;;44.42;8.25;;;;;;;10.67;100.00;99738.00;5055671;28;20085;-67
2021/03/11 04:26:03;;;;;;;48.60;8.55;;;;;;;10.65;100.00;99753.84;5073387;28;20394;-68
2021/03/11 04:28:29;;;;;;;46.25;7.40;;;;;;;10.64;100.00;99795.09;5073614;28;20185;-67
2021/03/11 04:30:55;;;;;;;47.70;7.72;;;;;;;10.60;100.00;99804.91;5073414;28;20486;-67
2021/03/11 04:33:21;;;;;;;41.55;7.28;;;;;;;10.59;100.00;99765.88;5073526;28;20044;-67
2021/03/11 04:35:47;;;;;;;31.98;6.53;;;;;;;10.62;100.00;99791.81;5073422;28;20482;-67
2021/03/11 04:38:15;;;;;;;54.72;8.30;;;;;;;10.65;100.00;99783.06;5073337;28;20394;-68
2021/03/11 04:40:41;;;;;;;52.30;8.20;;;;;;;10.65;100.00;99792.09;5073352;28;20028;-67
2021/03/11 04:43:07;;;;;;;53.53;9.90;;;;;;;10.65;100.00;99829.50;5073303;28;20103;-67
2021/03/11 04:45:33;;;;;;;44.92;7.82;;;;;;;10.61;100.00;99814.72;5073215;28;20506;-68
2021/03/11 04:48:01;;;;;;;49.83;7.80;;;;;;;10.62;100.00;99797.25;5073320;28;20040;-67
2021/03/11 04:50:29;;;;;;;42.65;6.82;;;;;;;10.66;100.00;99801.91;5073213;28;20114;-67
2021/03/11 04:52:56;;;;;;;48.08;7.78;;;;;;;10.70;100.00;99827.59;5073173;28;20052;-68
2021/03/11 04:55:22;;;;;;;48.42;8.25;;;;;;;10.73;100.00;99809.84;5073195;28;20064;-67
2021/03/11 04:57:48;;;;;;;48.15;7.05;;;;;;;10.74;100.00;99803.28;5073062;28;20041;-66
2021/03/11 05:00:16;;;;;;;43.60;8.48;;;;;;;10.73;100.00;99842.63;5054774;28;20533;-67
2021/03/11 05:02:45;;;;;;;51.17;8.20;;;;;;;10.70;100.00;99811.19;5072922;28;20044;-68
2021/03/11 05:05:12;;;;;;;47.28;9.18;;;;;;;10.70;100.00;99822.13;5073163;28;20048;-67
2021/03/11 05:07:38;;;;;;;35.35;6.28;;;;;;;10.70;100.00;99830.31;5073086;28;20379;-67
2021/03/11 05:10:04;;;;;;;43.60;7.47;;;;;;;10.74;100.00;99846.97;5072955;28;20036;-66
2021/03/11 05:12:30;;;;;;;35.80;7.00;;;;;;;10.75;100.00;99840.44;5072744;28;20032;-67
2021/03/11 05:14:56;;;;;;;54.25;8.35;;;;;;;10.76;100.00;99853.84;5072286;28;20047;-68
2021/03/11 05:17:22;;;;;;;48.65;8.95;;;;;;;10.72;100.00;99846.44;5073057;28;20040;-68
2021/03/11 05:19:47;;;;;;;37.35;6.40;;;;;;;10.64;100.00;99795.09;5072622;28;20115;-68
2021/03/11 05:22:13;;;;;;;26.50;6.50;;;;;;;10.54;100.00;99845.81;5072486;28;20048;-68
2021/03/11 05:24:39;;;;;;;29.15;6.45;;;;;;;10.52;100.00;99809.78;5072530;28;20046;-67
2021/03/11 05:27:05;;;;;;;44.78;7.10;;;;;;;10.52;100.00;99864.38;5052803;28;20040;-67
2021/03/11 05:29:30;;;;;;;37.28;6.65;;;;;;;10.48;100.00;99865.19;5052320;28;20075;-68
2021/03/11 05:31:56;;;;;;;41.30;7.15;;;;;;;10.44;100.00;99855.88;5052316;28;20041;-68
2021/03/11 05:34:21;;;;;;;36.47;6.90;;;;;;;10.40;100.00;99868.41;5054242;28;20049;-67
2021/03/11 05:36:47;;;;;;;43.53;7.13;;;;;;;10.38;100.00;99855.03;5072239;28;20036;-68
2021/03/11 05:39:13;;;;;;;40.15;7.60;;;;;;;10.42;100.00;99819.84;5072454;28;20432;-68
2021/03/11 05:41:43;;;;;;;40.53;6.93;;;;;;;10.41;100.00;99862.69;5054229;28;20048;-67
2021/03/11 05:44:09;;;;;;;37.47;7.18;;;;;;;10.41;100.00;99868.16;5054202;28;20063;-68
2021/03/11 05:46:39;;;;;;;34.90;6.70;;;;;;;10.36;100.00;99878.22;5072106;28;20043;-67
2021/03/11 05:49:07;;;;;;;40.58;6.30;;;;;;;10.33;100.00;99868.66;5072058;28;20048;-69
2021/03/11 05:51:36;;;;;;;37.85;6.07;;;;;;;10.31;100.00;99894.56;5071900;28;20123;-68
2021/03/11 05:54:02;;;;;;;39.00;7.60;;;;;;;10.25;100.00;99923.75;5072048;28;20056;-66
2021/03/11 05:56:28;;;;;;;49.22;6.90;;;;;;;10.08;100.00;99928.50;5071854;28;20044;-67
2021/03/11 05:58:57;;;;;;;28.08;4.22;;;;;;;9.48;100.00;99948.66;5071681;28;20032;-67
2021/03/11 06:01:25;;;;;;;23.00;2.97;;;;;;;9.11;100.00;99924.81;5071817;28;20032;-67
2021/03/11 06:03:54;;;;;;;20.27;3.60;;;;;;;8.90;100.00;99939.28;5053480;28;20430;-67
2021/03/11 06:06:21;;;;;;;23.63;3.13;;;;;;;8.82;100.00;99942.44;5071616;28;20037;-68
2021/03/11 06:08:52;;;;;;;17.17;3.10;;;;;;;8.78;100.00;99936.69;5071753;28;20467;-67
2021/03/11 06:11:19;;;;;;;29.33;3.30;;;;;;;8.83;100.00;99950.34;5071659;28;20040;-68
2021/03/11 06:13:47;;;;;;;18.35;3.30;;;;;;;8.88;100.00;99957.78;5071476;28;20032;-68
2021/03/11 06:16:22;;;;;;;24.38;3.58;;;;;;;8.93;100.00;99944.22;5071517;28;20483;-66
2021/03/11 06:18:50;;;;;;;22.80;4.63;;;;;;;8.97;100.00;99945.34;5071443;28;20047;-67
2021/03/11 06:21:19;;;;;;;39.53;6.05;;;;;;;9.00;100.00;99939.41;5071310;28;20127;-68
2021/03/11 06:23:45;;;;;;;35.10;6.18;;;;;;;9.04;100.00;99962.34;5071487;28;20075;-67
2021/03/11 06:26:12;;;;;;;49.92;7.80;;;;;;;9.08;100.00;99974.38;5071305;28;20032;-67
2021/03/11 06:28:47;;;;;;;48.53;7.38;;;;;;;9.12;100.00;99975.50;5071132;28;20036;-66
2021/03/11 06:31:27;;;;;;;72.45;8.48;;;;;;;9.17;100.00;99989.19;5071317;28;20471;-68
2021/03/11 06:33:54;;;;;;;36.35;6.75;;;;;;;9.24;100.00;99978.94;5071250;28;20038;-65
2021/03/11 06:36:30;;;;;;;44.60;7.57;;;;;;;9.29;100.00;99981.72;5070936;28;20086;-68
2021/03/11 06:38:59;;;;;;;37.22;5.28;;;;;;;9.28;100.00;99973.78;5070990;28;20448;-67
2021/03/11 06:41:43;;;;;;;40.00;6.22;;;;;;;9.32;100.00;99992.09;5071195;28;20436;-67
2021/03/11 06:44:08;;;;;;;45.42;8.05;;;;;;;9.33;100.00;99982.84;5071057;28;20402;-68
2021/03/11 06:46:34;;;;;;;44.10;6.43;;;;;;;9.30;100.00;100005.16;5071015;28;20052;-68
2021/03/11 06:49:11;;;;;;;33.55;5.82;;;;;;;9.29;100.00;99991.78;5071055;28;20040;-68
2021/03/11 06:51:38;;;;;;;30.90;4.20;;;;;;;9.30;100.00;99993.44;5070858;28;20044;-67
2021/03/11 06:54:05;;;;;;;30.88;5.05;;;;;;;9.31;100.00;100000.53;5070820;28;20402;-65
2021/03/11 06:56:31;;;;;;;37.58;6.10;;;;;;;9.33;100.00;100015.53;5070881;28;20047;-68
2021/03/11 06:59:00;;;;;;;24.80;3.85;;;;;;;9.34;100.00;100011.72;5052893;28;20451;-66
2021/03/11 07:01:28;;;;;;;31.67;4.82;;;;;;;9.37;100.00;100021.28;5070788;28;20036;-67
2021/03/11 07:03:54;;;;;;;27.27;4.78;;;;;;;9.38;100.00;100022.16;5070546;28;20048;-67
2021/03/11 07:06:37;;;;;;;31.40;4.53;;;;;;;9.40;100.00;100025.44;5070603;28;20563;-67
2021/03/11 07:09:07;;;;;;;31.45;4.50;;;;;;;9.42;100.00;100012.38;5071477;28;20477;-67
2021/03/11 07:11:33;;;;;;;36.65;5.20;;;;;;;9.44;100.00;100027.41;5052986;28;20078;-68
2021/03/11 07:14:01;;;;;;;39.13;5.88;;;;;;;9.49;100.00;100059.31;5070573;28;20111;-67
2021/03/11 07:16:28;;;;;;;35.20;5.63;;;;;;;9.56;100.00;100047.16;5070625;28;20123;-66
2021/03/11 07:19:16;;;;;;;32.92;6.10;;;;;;;9.58;100.00;100071.44;5070656;28;20123;-67
2021/03/11 07:21:50;;;;;;;30.63;5.05;;;;;;;9.48;100.00;100060.41;5070539;28;20040;-68
2021/03/11 07:24:36;;;;;;;23.75;3.88;;;;;;;9.28;100.00;100056.34;5070507;28;20066;-66
2021/03/11 07:27:04;;;;;;;26.98;3.53;;;;;;;9.24;100.00;100057.13;5071009;28;20059;-68
2021/03/11 07:29:30;;;;;;;23.42;4.22;;;;;;;9.13;100.00;100075.22;5070525;28;20031;-66
2021/03/11 07:32:04;;;;;;;23.73;3.80;;;;;;;9.03;100.00;100066.91;5070533;28;20383;-67
2021/03/11 07:34:33;;;;;;;22.42;2.65;;;;;;;8.99;100.00;100084.81;5070616;28;20467;-66
2021/03/11 07:36:59;;;;;;;25.67;4.05;;;;;;;8.96;100.00;100063.53;5070868;28;20036;-68
2021/03/11 07:39:43;;;;;;;25.33;3.95;;;;;;;8.98;100.00;100083.16;5074476;28;20032;-66
2021/03/11 07:42:10;;;;;;;29.30;4.10;;;;;;;9.03;100.00;100083.25;5074369;28;20473;-67
2021/03/11 07:44:37;;;;;;;24.50;4.75;;;;;;;9.04;100.00;100077.56;5056419;28;20038;-66
2021/03/11 07:47:05;;;;;;;32.38;4.32;;;;;;;9.11;100.00;100088.28;5074793;28;20216;-67
2021/03/11 07:49:32;;;;;;;27.75;4.38;;;;;;;9.15;100.00;100083.13;5074373;28;20033;-67
2021/03/11 07:51:58;;;;;;;27.50;5.57;;;;;;;9.19;100.00;100085.09;5074056;28;20066;-67
2021/03/11 07:54:25;;;;;;;25.70;4.95;;;;;;;9.25;100.00;100105.09;5074313;28;20028;-68
2021/03/11 07:56:51;;;;;;;26.10;5.00;;;;;;;9.31;100.00;100099.44;5074160;28;20513;-67
2021/03/11 07:59:19;;;;;;;29.77;5.80;;;;;;;9.35;100.00;100100.59;5074002;28;20036;-67
2021/03/11 08:01:49;;;;;;;22.10;3.60;;;;;;;9.35;100.00;100106.03;5074183;28;20037;-67
2021/03/11 08:04:17;;;;;;;29.73;4.60;;;;;;;9.43;100.00;100128.50;5073781;28;20056;-67
2021/03/11 08:06:43;;;;;;;26.80;4.38;;;;;;;9.41;100.00;100130.66;5055795;28;20051;-66
2021/03/11 08:09:08;;;;;;;26.90;4.70;;;;;;;9.46;100.00;100133.44;5074071;28;20071;-66
2021/03/11 08:11:38;;;;;;;25.88;4.00;;;;;;;9.51;100.00;100136.22;5073993;28;20415;-67
2021/03/11 08:14:24;;;;;;;29.30;3.72;;;;;;;9.54;100.00;100141.16;5073747;28;20036;-67
2021/03/11 08:16:51;;;;;;;33.67;5.15;;;;;;;9.55;100.00;100130.03;5073846;28;20036;-67
2021/03/11 08:19:35;;;;;;;32.25;4.80;;;;;;;9.62;100.00;100148.91;5073707;28;20506;-66
2021/03/11 08:22:00;;;;;;;38.30;5.68;;;;;;;9.67;100.00;100162.59;5073631;28;20437;-65
2021/03/11 08:24:47;;;;;;;25.98;4.30;;;;;;;9.73;100.00;100156.16;5073702;28;20036;-67
2021/03/11 08:27:28;;;;;;;25.40;3.95;;;;;;;9.79;100.00;100171.50;5073323;28;20033;-66
2021/03/11 08:29:54;;;;;;;30.33;4.13;;;;;;;9.85;100.00;100175.94;5073563;28;20037;-67
2021/03/11 08:32:52;;;;;;;27.25;4.38;;;;;;;9.96;100.00;100183.16;5073513;28;20398;-67
2021/03/11 08:35:27;;;;;;;37.80;5.13;;;;;;;10.06;100.00;100192.53;5028883;28;20056;-67
2021/03/11 08:37:53;;;;;;;25.38;4.63;;;;;;;10.11;100.00;100189.91;5073341;28;20552;-68
2021/03/11 08:40:36;;;;;;;29.92;4.10;;;;;;;10.07;100.00;100199.69;5073371;28;20397;-68
2021/03/11 08:43:02;;;;;;;31.40;4.10;;;;;;;10.02;100.00;100202.31;5073188;28;20044;-68
2021/03/11 08:45:37;;;;;;;23.17;3.22;;;;;;;9.94;100.00;100200.88;5073478;28;20040;-67
2021/03/11 08:48:14;;;;;;;19.23;3.08;;;;;;;9.79;100.00;100211.59;5072414;28;20032;-66
2021/03/11 08:50:42;;;;;;;16.52;1.80;;;;;;;9.66;100.00;100210.03;5072389;28;20043;-63
2021/03/11 08:53:08;;;;;;;15.32;2.60;;;;;;;9.53;100.00;100199.47;5072282;28;20505;-67
2021/03/11 08:55:39;;;;;;;14.05;2.80;;;;;;;9.47;100.00;100216.84;5072535;28;20040;-65
2021/03/11 08:58:23;;;;;;;21.25;3.40;;;;;;;9.50;100.00;100232.69;5072504;28;20045;-64
2021/03/11 09:01:02;;;;;;;39.42;4.15;;;;;;;9.57;100.00;100227.91;5073012;28;20036;-65
2021/03/11 09:03:43;;;;;;;46.05;4.43;;;;;;;9.66;100.00;100232.69;5072407;28;20632;-66
2021/03/11 09:06:14;;;;;;;24.35;3.22;;;;;;;9.66;100.00;100240.03;5052948;28;20371;-66
2021/03/11 09:08:48;;;;;;;16.95;3.38;;;;;;;9.74;100.00;100228.72;5054456;28;20033;-65
2021/03/11 09:11:21;;;;;;;18.85;2.65;;;;;;;9.81;100.00;100234.78;5072482;28;20449;-65
2021/03/11 09:13:48;;;;;;;13.93;1.85;;;;;;;9.89;100.00;100231.66;5072128;28;20028;-66
2021/03/11 09:16:14;;;;;;;23.23;2.90;;;;;;;9.98;100.00;100230.13;5072582;28;20071;-67
2021/03/11 09:18:40;;;;;;;10.90;2.53;;;;;;;10.14;100.00;100238.50;5072364;28;20043;-67
2021/03/11 09:21:08;;;;;;;15.40;2.55;;;;;;;10.25;100.00;100243.03;5072558;28;20036;-68
2021/03/11 09:23:40;;;;;;;20.88;3.42;;;;;;;10.35;100.00;100248.59;5072360;28;20047;-67
2021/03/11 09:26:07;;;;;;;19.13;2.72;;;;;;;10.35;100.00;100256.78;5072406;28;20398;-64
2021/03/11 09:28:34;;;;;;;12.77;3.00;;;;;;;10.29;100.00;100263.28;5072548;28;20125;-64
2021/03/11 09:31:00;;;;;;;19.48;3.25;;;;;;;10.42;100.00;100262.91;5054360;28;20037;-64
2021/03/11 09:33:26;;;;;;;20.63;3.40;;;;;;;10.57;100.00;100273.97;5071488;28;20036;-64
2021/03/11 09:35:52;;;;;;;24.55;3.65;;;;;;;10.66;100.00;100284.44;5071412;28;20078;-66
2021/03/11 09:38:23;;;;;;;25.95;3.97;;;;;;;10.61;100.00;100292.59;5072056;28;20128;-69
2021/03/11 09:40:56;;;;;;;18.98;2.85;;;;;;;10.58;100.00;100289.25;5071680;28;20047;-64
2021/03/11 09:43:30;;;;;;;23.13;3.15;;;;;;;10.62;100.00;100294.25;5071652;28;20028;-65
2021/03/11 09:46:01;;;;;;;27.33;4.07;;;;;;;10.72;100.00;100286.16;5071215;28;20467;-64
2021/03/11 09:48:31;;;;;;;23.60;3.70;;;;;;;10.81;100.00;100282.72;5071494;28;20127;-62
2021/03/11 09:51:01;;;;;;;25.95;4.25;;;;;;;10.71;100.00;100281.75;5071916;28;20434;-71
2021/03/11 09:53:36;;;;;;;29.10;5.45;;;;;;;10.66;100.00;100289.91;5071331;28;20048;-62
2021/03/11 09:56:02;;;;;;;24.63;4.03;;;;;;;10.81;100.00;100284.63;5071349;28;20054;-67
2021/03/11 09:58:28;;;;;;;26.10;4.90;;;;;;;10.84;100.00;100286.84;5071251;28;20040;-67
2021/03/11 10:00:54;;;;;;;24.98;4.07;;;;;;;10.96;100.00;100279.31;5070365;28;20028;-66
2021/03/11 10:03:23;;;;;;;23.15;4.03;;;;;;;10.90;100.00;100296.72;5070455;28;20036;-63
2021/03/11 10:05:57;;;;;;;24.30;4.65;;;;;;;10.93;100.00;100285.25;5071047;28;20131;-64
2021/03/11 10:08:27;;;;;;;;;;;;;;;10.93;100.00;100279.81;5071993;28;20036;-63
2021/03/11 10:11:19;;;;;;;31.63;4.82;;;;;;;10.93;100.00;100289.91;5071065;28;20358;-64
2021/03/11 10:13:50;;;;;;;18.77;3.25;;;;;;;11.14;100.00;100298.06;5070581;28;20052;-66
2021/03/11 10:16:31;;;;;;;22.55;4.05;;;;;;;11.27;100.00;100290.50;5070927;28;20474;-62
2021/03/11 10:19:00;;;;;;;24.45;3.25;;;;;;;11.42;100.00;100293.38;5071110;28;20040;-65
2021/03/11 10:21:26;;;;;;;25.17;4.10;;;;;;;11.42;100.00;100304.31;5070789;28;20253;-65
2021/03/11 10:23:52;;;;;;;21.55;2.80;;;;;;;11.13;100.00;100304.63;5070733;28;20032;-66
2021/03/11 10:26:27;;;;;;;22.83;3.53;;;;;;;10.97;100.00;100308.28;5070170;28;20090;-64
2021/03/11 10:29:03;;;;;;;12.13;2.65;;;;;;;10.83;100.00;100324.25;5053224;28;20086;-65
2021/03/11 10:31:29;;;;;;;11.35;2.15;;;;;;;10.67;100.00;100325.16;5070454;28;20033;-66
2021/03/11 10:34:09;;;;;;;17.65;2.45;;;;;;;10.58;100.00;100322.03;5070196;28;20143;-65
2021/03/11 10:36:36;;;;;;;17.55;2.97;;;;;;;10.62;100.00;100337.94;5070536;28;20387;-66
2021/03/11 10:39:12;;;;;;;29.23;4.63;;;;;;;10.48;100.00;100326.56;5070597;28;20451;-65
2021/03/11 10:41:57;;;;;;;15.00;2.78;;;;;;;10.41;100.00;100326.78;5070379;28;20044;-65
2021/03/11 10:44:23;;;;;;;15.25;2.63;;;;;;;10.42;100.00;100335.78;5070916;28;20077;-63
2021/03/11 10:46:49;;;;;;;16.80;2.50;;;;;;;10.46;100.00;100340.47;5070924;28;20371;-66
2021/03/11 10:49:15;;;;;;;22.02;3.03;;;;;;;10.43;100.00;100346.44;5070289;28;20086;-69
2021/03/11 10:51:42;;;;;;;16.35;2.65;;;;;;;10.50;100.00;100344.34;5070537;28;20037;-64
2021/03/11 10:54:27;;;;;;;22.25;2.97;;;;;;;10.48;100.00;100335.59;5070566;28;20090;-65
2021/03/11 10:57:05;;;;;;;;;;;;;;;10.40;100.00;100319.63;5070814;28;20029;-67
2021/03/11 11:00:08;;;;;;;14.93;2.03;;;;;;;10.43;100.00;100319.16;5070239;28;20267;-67
2021/03/11 11:02:33;;;;;;;9.88;2.55;;;;;;;10.47;100.00;100325.75;5069433;28;20333;-65
2021/03/11 11:05:02;;;;;;;21.48;3.58;;;;;;;10.57;100.00;100331.31;5069769;28;20052;-65
2021/03/11 11:07:28;;;;;;;19.65;3.22;;;;;;;10.63;100.00;100334.94;5069910;28;20044;-64
2021/03/11 11:09:54;;;;;;;24.63;2.78;;;;;;;10.79;100.00;100327.75;5069608;28;20055;-65
2021/03/11 11:12:21;;;;;;;17.95;3.10;;;;;;;10.73;100.00;100339.69;5070010;28;20032;-65
2021/03/11 11:14:50;;;;;;;18.90;3.13;;;;;;;10.86;100.00;100344.75;5069723;28;20513;-64
2021/03/11 11:17:17;;;;;;;22.90;3.47;;;;;;;11.04;100.00;100340.84;5069911;28;20032;-63
2021/03/11 11:19:44;;;;;;;24.33;3.88;;;;;;;11.29;100.00;100353.97;5069976;28;20070;-68
2021/03/11 11:22:10;;;;;;;19.98;2.30;;;;;;;11.27;100.00;100339.72;5052122;28;20036;-68
2021/03/11 11:24:39;;;;;;;20.42;2.95;;;;;;;11.15;100.00;100354.38;5070375;28;20138;-65